Averill, Minnesota
Current Conditions -  °F | °C
As of 4:34 PM on Wednesday 22 Oct 2014 (Local Time) from KJKJ Reporting Station
Overcast Overcast  
Wind Chill: 64°   Ceiling: 4100
Heat Index: 64°   Visibility: 10mi
Dew Point: 50°   Wind: 17mph
Humidity: 59%   Direction: 250°WSW
Pressure: 29.85"   Gusts: NA
Location:  46.8905°N, 96.5417°W
Report Text: KJKJ 222134Z AUTO 25015KT 10SM OVC041 18/10 A2985 RMK AO2
Loading
Personal Weather Stations






























Interactive Weather Map
Tropical Storm Tracking
New forecast layout! Learn more

10-Day Weather Forecast

Advertisements
Track Severe Weather on mobile